sensor_id;sensor_type;location;lat;lon;timestamp;pressure;altitude;pressure_sealevel;temperature;humidity
21877;BME280;11103;43.788;23.710;2023-05-20T00:00:34;-14922.56;;;-144.67;100.00
21877;BME280;11103;43.788;23.710;2023-05-20T00:03:00;-14922.56;;;-144.67;100.00
21877;BME280;11103;43.788;23.710;2023-05-20T00:05:25;-14922.56;;;-144.67;100.00
21877;BME280;11103;43.788;23.710;2023-05-20T00:07:51;-14922.56;;;-144.67;100.00
21877;BME280;11103;43.788;23.710;2023-05-20T00:10:16;-14922.56;;;-144.67;100.00
21877;BME280;11103;43.788;23.710;2023-05-20T00:12:42;-14922.56;;;-144.67;100.00
21877;BME280;11103;43.788;23.710;2023-05-20T00:15:08;-14922.56;;;-144.67;100.00
21877;BME280;11103;43.788;23.710;2023-05-20T00:17:33;-14922.56;;;-144.67;100.00
21877;BME280;11103;43.788;23.710;2023-05-20T00:19:59;-14922.56;;;-144.67;100.00
21877;BME280;11103;43.788;23.710;2023-05-20T00:22:24;-14922.56;;;-144.67;100.00
21877;BME280;11103;43.788;23.710;2023-05-20T00:24:50;-14922.56;;;-144.67;100.00
21877;BME280;11103;43.788;23.710;2023-05-20T00:27:15;-14922.56;;;-144.67;100.00
21877;BME280;11103;43.788;23.710;2023-05-20T00:29:41;-14922.56;;;-144.67;100.00
21877;BME280;11103;43.788;23.710;2023-05-20T00:32:06;-14922.56;;;-144.67;100.00
21877;BME280;11103;43.788;23.710;2023-05-20T00:34:32;-14922.56;;;-144.67;100.00
21877;BME280;11103;43.788;23.710;2023-05-20T00:36:57;-14922.56;;;-144.67;100.00
21877;BME280;11103;43.788;23.710;2023-05-20T00:39:23;-14922.56;;;-144.67;100.00
21877;BME280;11103;43.788;23.710;2023-05-20T00:41:48;-14922.56;;;-144.67;100.00
21877;BME280;11103;43.788;23.710;2023-05-20T00:44:13;-14922.56;;;-144.67;100.00
21877;BME280;11103;43.788;23.710;2023-05-20T00:46:39;-14922.56;;;-144.67;100.00
21877;BME280;11103;43.788;23.710;2023-05-20T00:49:05;-14922.56;;;-144.67;100.00
21877;BME280;11103;43.788;23.710;2023-05-20T00:51:30;-14922.56;;;-144.67;100.00
21877;BME280;11103;43.788;23.710;2023-05-20T00:53:56;-14922.56;;;-144.67;100.00
21877;BME280;11103;43.788;23.710;2023-05-20T00:56:22;-14922.56;;;-144.67;100.00
21877;BME280;11103;43.788;23.710;2023-05-20T00:58:49;-14922.56;;;-144.67;100.00
21877;BME280;11103;43.788;23.710;2023-05-20T01:01:15;-14922.56;;;-144.67;100.00
21877;BME280;11103;43.788;23.710;2023-05-20T01:03:40;-14922.56;;;-144.67;100.00
21877;BME280;11103;43.788;23.710;2023-05-20T01:06:05;-14922.56;;;-144.67;100.00
21877;BME280;11103;43.788;23.710;2023-05-20T01:08:31;-14922.56;;;-144.67;100.00
21877;BME280;11103;43.788;23.710;2023-05-20T01:11:12;-14922.56;;;-144.67;100.00
21877;BME280;11103;43.788;23.710;2023-05-20T01:13:45;-14922.56;;;-144.67;100.00
21877;BME280;11103;43.788;23.710;2023-05-20T01:16:13;-14922.56;;;-144.67;100.00
21877;BME280;11103;43.788;23.710;2023-05-20T01:18:40;-14922.56;;;-144.67;100.00
21877;BME280;11103;43.788;23.710;2023-05-20T01:21:10;-14922.56;;;-144.67;100.00
21877;BME280;11103;43.788;23.710;2023-05-20T01:23:40;-14922.56;;;-144.67;100.00
21877;BME280;11103;43.788;23.710;2023-05-20T01:26:06;-14922.56;;;-144.67;100.00
21877;BME280;11103;43.788;23.710;2023-05-20T01:28:33;-14922.56;;;-144.67;100.00
21877;BME280;11103;43.788;23.710;2023-05-20T01:31:01;-14922.56;;;-144.67;100.00
21877;BME280;11103;43.788;23.710;2023-05-20T01:33:30;-14922.56;;;-144.67;100.00
21877;BME280;11103;43.788;23.710;2023-05-20T01:35:58;-14922.56;;;-144.67;100.00
21877;BME280;11103;43.788;23.710;2023-05-20T01:38:24;-14922.56;;;-144.67;100.00
21877;BME280;11103;43.788;23.710;2023-05-20T01:40:50;-14922.56;;;-144.67;100.00
21877;BME280;11103;43.788;23.710;2023-05-20T01:43:17;-14922.56;;;-144.67;100.00
21877;BME280;11103;43.788;23.710;2023-05-20T01:45:43;-14922.56;;;-144.67;100.00
21877;BME280;11103;43.788;23.710;2023-05-20T01:48:12;-14922.56;;;-144.67;100.00
21877;BME280;11103;43.788;23.710;2023-05-20T01:50:38;-14922.56;;;-144.67;100.00
21877;BME280;11103;43.788;23.710;2023-05-20T01:53:03;-14922.56;;;-144.67;100.00
21877;BME280;11103;43.788;23.710;2023-05-20T01:55:30;-14922.56;;;-144.67;100.00
21877;BME280;11103;43.788;23.710;2023-05-20T01:57:55;-14922.56;;;-144.67;100.00
21877;BME280;11103;43.788;23.710;2023-05-20T02:00:21;-14922.56;;;-144.67;100.00
21877;BME280;11103;43.788;23.710;2023-05-20T02:02:46;-14922.56;;;-144.67;100.00
21877;BME280;11103;43.788;23.710;2023-05-20T02:05:11;-14922.56;;;-144.67;100.00
21877;BME280;11103;43.788;23.710;2023-05-20T02:07:37;-14922.56;;;-144.67;100.00
21877;BME280;11103;43.788;23.710;2023-05-20T02:10:03;-14922.56;;;-144.67;100.00
21877;BME280;11103;43.788;23.710;2023-05-20T02:12:28;-14922.56;;;-144.67;100.00
21877;BME280;11103;43.788;23.710;2023-05-20T02:14:54;-14922.56;;;-144.67;100.00
21877;BME280;11103;43.788;23.710;2023-05-20T02:17:20;-14922.56;;;-144.67;100.00
21877;BME280;11103;43.788;23.710;2023-05-20T02:19:45;-14922.56;;;-144.67;100.00
21877;BME280;11103;43.788;23.710;2023-05-20T02:22:11;-14922.56;;;-144.67;100.00
21877;BME280;11103;43.788;23.710;2023-05-20T02:24:37;-14922.56;;;-144.67;100.00
21877;BME280;11103;43.788;23.710;2023-05-20T02:27:02;-14922.56;;;-144.67;100.00
21877;BME280;11103;43.788;23.710;2023-05-20T02:29:29;-14922.56;;;-144.67;100.00
21877;BME280;11103;43.788;23.710;2023-05-20T02:31:54;-14922.56;;;-144.67;100.00
21877;BME280;11103;43.788;23.710;2023-05-20T02:34:20;-14922.56;;;-144.67;100.00
21877;BME280;11103;43.788;23.710;2023-05-20T02:36:45;-14922.56;;;-144.67;100.00
21877;BME280;11103;43.788;23.710;2023-05-20T02:39:11;-14922.56;;;-144.67;100.00
21877;BME280;11103;43.788;23.710;2023-05-20T02:41:37;-14922.56;;;-144.67;100.00
21877;BME280;11103;43.788;23.710;2023-05-20T02:44:02;-14922.56;;;-144.67;100.00
21877;BME280;11103;43.788;23.710;2023-05-20T02:46:27;-14922.56;;;-144.67;100.00
21877;BME280;11103;43.788;23.710;2023-05-20T02:48:53;-14922.56;;;-144.67;100.00
21877;BME280;11103;43.788;23.710;2023-05-20T02:51:18;-14922.56;;;-144.67;100.00
21877;BME280;11103;43.788;23.710;2023-05-20T02:53:45;-14922.56;;;-144.67;100.00
21877;BME280;11103;43.788;23.710;2023-05-20T02:56:10;-14922.56;;;-144.67;100.00
21877;BME280;11103;43.788;23.710;2023-05-20T02:58:36;-14922.56;;;-144.67;100.00
21877;BME280;11103;43.788;23.710;2023-05-20T03:01:01;-14922.56;;;-144.67;100.00
21877;BME280;11103;43.788;23.710;2023-05-20T03:03:27;-14922.56;;;-144.67;100.00
21877;BME280;11103;43.788;23.710;2023-05-20T03:05:53;-14922.56;;;-144.67;100.00
21877;BME280;11103;43.788;23.710;2023-05-20T03:08:21;-14922.56;;;-144.67;100.00
21877;BME280;11103;43.788;23.710;2023-05-20T03:10:47;-14922.56;;;-144.67;100.00
21877;BME280;11103;43.788;23.710;2023-05-20T03:13:12;-14922.56;;;-144.67;100.00
21877;BME280;11103;43.788;23.710;2023-05-20T03:15:40;-14922.56;;;-144.67;100.00
21877;BME280;11103;43.788;23.710;2023-05-20T03:18:05;-14922.56;;;-144.67;100.00
21877;BME280;11103;43.788;23.710;2023-05-20T03:20:32;-14922.56;;;-144.67;100.00
21877;BME280;11103;43.788;23.710;2023-05-20T03:23:01;-14922.56;;;-144.67;100.00
21877;BME280;11103;43.788;23.710;2023-05-20T03:25:27;-14922.56;;;-144.67;100.00
21877;BME280;11103;43.788;23.710;2023-05-20T03:27:52;-14922.56;;;-144.67;100.00
21877;BME280;11103;43.788;23.710;2023-05-20T03:30:17;-14922.56;;;-144.67;100.00
21877;BME280;11103;43.788;23.710;2023-05-20T03:32:43;-14922.56;;;-144.67;100.00
21877;BME280;11103;43.788;23.710;2023-05-20T03:35:08;-14922.56;;;-144.67;100.00
21877;BME280;11103;43.788;23.710;2023-05-20T03:37:34;-14922.56;;;-144.67;100.00
21877;BME280;11103;43.788;23.710;2023-05-20T03:40:00;-14922.56;;;-144.67;100.00
21877;BME280;11103;43.788;23.710;2023-05-20T03:42:26;-14922.56;;;-144.67;100.00
21877;BME280;11103;43.788;23.710;2023-05-20T03:44:51;-14922.56;;;-144.67;100.00
21877;BME280;11103;43.788;23.710;2023-05-20T03:47:16;-14922.56;;;-144.67;100.00
21877;BME280;11103;43.788;23.710;2023-05-20T03:49:42;-14922.56;;;-144.67;100.00
21877;BME280;11103;43.788;23.710;2023-05-20T03:52:07;-14922.56;;;-144.67;100.00
21877;BME280;11103;43.788;23.710;2023-05-20T03:54:33;-14922.56;;;-144.67;100.00
21877;BME280;11103;43.788;23.710;2023-05-20T03:57:00;-14922.56;;;-144.67;100.00
21877;BME280;11103;43.788;23.710;2023-05-20T03:59:27;-14922.56;;;-144.67;100.00
21877;BME280;11103;43.788;23.710;2023-05-20T04:01:52;-14922.56;;;-144.67;100.00
21877;BME280;11103;43.788;23.710;2023-05-20T04:04:18;-14922.56;;;-144.67;100.00
21877;BME280;11103;43.788;23.710;2023-05-20T04:06:43;-14922.56;;;-144.67;100.00
21877;BME280;11103;43.788;23.710;2023-05-20T04:09:10;-14922.56;;;-144.67;100.00
21877;BME280;11103;43.788;23.710;2023-05-20T04:11:35;-14922.56;;;-144.67;100.00
21877;BME280;11103;43.788;23.710;2023-05-20T04:14:00;-14922.56;;;-144.67;100.00
21877;BME280;11103;43.788;23.710;2023-05-20T04:16:26;-14922.56;;;-144.67;100.00
21877;BME280;11103;43.788;23.710;2023-05-20T04:18:53;-14922.56;;;-144.67;100.00
21877;BME280;11103;43.788;23.710;2023-05-20T04:21:18;-14922.56;;;-144.67;100.00
21877;BME280;11103;43.788;23.710;2023-05-20T04:23:44;-14922.56;;;-144.67;100.00
21877;BME280;11103;43.788;23.710;2023-05-20T04:26:09;-14922.56;;;-144.67;100.00
21877;BME280;11103;43.788;23.710;2023-05-20T04:28:35;-14922.56;;;-144.67;100.00
21877;BME280;11103;43.788;23.710;2023-05-20T04:31:02;-14922.56;;;-144.67;100.00
21877;BME280;11103;43.788;23.710;2023-05-20T04:33:30;-14922.56;;;-144.67;100.00
21877;BME280;11103;43.788;23.710;2023-05-20T04:35:57;-14922.56;;;-144.67;100.00
21877;BME280;11103;43.788;23.710;2023-05-20T04:38:26;-14922.56;;;-144.67;100.00
21877;BME280;11103;43.788;23.710;2023-05-20T04:40:58;-14922.56;;;-144.67;100.00
21877;BME280;11103;43.788;23.710;2023-05-20T04:43:24;-14922.56;;;-144.67;100.00
21877;BME280;11103;43.788;23.710;2023-05-20T04:45:51;-14922.56;;;-144.67;100.00
21877;BME280;11103;43.788;23.710;2023-05-20T04:48:19;-14922.56;;;-144.67;100.00
21877;BME280;11103;43.788;23.710;2023-05-20T04:50:47;-14922.56;;;-144.67;100.00
21877;BME280;11103;43.788;23.710;2023-05-20T04:53:17;-14922.56;;;-144.67;100.00
21877;BME280;11103;43.788;23.710;2023-05-20T04:55:42;-14922.56;;;-144.67;100.00
21877;BME280;11103;43.788;23.710;2023-05-20T04:58:09;-14922.56;;;-144.67;100.00
21877;BME280;11103;43.788;23.710;2023-05-20T05:00:43;-14922.56;;;-144.67;100.00
21877;BME280;11103;43.788;23.710;2023-05-20T05:03:10;-14922.56;;;-144.67;100.00
21877;BME280;11103;43.788;23.710;2023-05-20T05:05:38;-14922.56;;;-144.67;100.00
21877;BME280;11103;43.788;23.710;2023-05-20T05:08:05;-14922.56;;;-144.67;100.00
21877;BME280;11103;43.788;23.710;2023-05-20T05:10:31;-14922.56;;;-144.67;100.00
21877;BME280;11103;43.788;23.710;2023-05-20T05:12:57;-14922.56;;;-144.67;100.00
21877;BME280;11103;43.788;23.710;2023-05-20T05:15:23;-14922.56;;;-144.67;100.00
21877;BME280;11103;43.788;23.710;2023-05-20T05:17:48;-14922.56;;;-144.67;100.00
21877;BME280;11103;43.788;23.710;2023-05-20T05:20:14;-14922.56;;;-144.67;100.00
21877;BME280;11103;43.788;23.710;2023-05-20T05:22:39;-14922.56;;;-144.67;100.00
21877;BME280;11103;43.788;23.710;2023-05-20T05:25:06;-14922.56;;;-144.67;100.00
21877;BME280;11103;43.788;23.710;2023-05-20T05:27:32;-14922.56;;;-144.67;100.00
21877;BME280;11103;43.788;23.710;2023-05-20T05:29:58;-14922.56;;;-144.67;100.00
21877;BME280;11103;43.788;23.710;2023-05-20T05:32:23;-14922.56;;;-144.67;100.00
21877;BME280;11103;43.788;23.710;2023-05-20T05:34:49;-14922.56;;;-144.67;100.00
21877;BME280;11103;43.788;23.710;2023-05-20T05:37:14;-14922.56;;;-144.67;100.00
21877;BME280;11103;43.788;23.710;2023-05-20T05:39:40;-14922.56;;;-144.67;100.00
21877;BME280;11103;43.788;23.710;2023-05-20T05:42:05;-14922.56;;;-144.67;100.00
21877;BME280;11103;43.788;23.710;2023-05-20T05:44:31;-14922.56;;;-144.67;100.00
21877;BME280;11103;43.788;23.710;2023-05-20T05:46:56;-14922.56;;;-144.67;100.00
21877;BME280;11103;43.788;23.710;2023-05-20T05:49:22;-14922.56;;;-144.67;100.00
21877;BME280;11103;43.788;23.710;2023-05-20T05:51:48;-14922.56;;;-144.67;100.00
21877;BME280;11103;43.788;23.710;2023-05-20T05:54:14;-14922.56;;;-144.67;100.00
21877;BME280;11103;43.788;23.710;2023-05-20T05:56:39;-14922.56;;;-144.67;100.00
21877;BME280;11103;43.788;23.710;2023-05-20T05:59:05;-14922.56;;;-144.67;100.00
21877;BME280;11103;43.788;23.710;2023-05-20T06:01:30;-14922.56;;;-144.67;100.00
21877;BME280;11103;43.788;23.710;2023-05-20T06:03:55;-14922.56;;;-144.67;100.00
21877;BME280;11103;43.788;23.710;2023-05-20T06:06:21;-14922.56;;;-144.67;100.00
21877;BME280;11103;43.788;23.710;2023-05-20T06:08:46;-14922.56;;;-144.67;100.00
21877;BME280;11103;43.788;23.710;2023-05-20T06:11:12;-14922.56;;;-144.67;100.00
21877;BME280;11103;43.788;23.710;2023-05-20T06:13:37;-14922.56;;;-144.67;100.00
21877;BME280;11103;43.788;23.710;2023-05-20T06:16:03;-14922.56;;;-144.67;100.00
21877;BME280;11103;43.788;23.710;2023-05-20T06:18:28;-14922.56;;;-144.67;100.00
21877;BME280;11103;43.788;23.710;2023-05-20T06:20:57;-14922.56;;;-144.67;100.00
21877;BME280;11103;43.788;23.710;2023-05-20T06:23:23;-14922.56;;;-144.67;100.00
21877;BME280;11103;43.788;23.710;2023-05-20T06:25:49;-14922.56;;;-144.67;100.00
21877;BME280;11103;43.788;23.710;2023-05-20T06:28:14;-14922.56;;;-144.67;100.00
21877;BME280;11103;43.788;23.710;2023-05-20T06:30:40;-14922.56;;;-144.67;100.00
21877;BME280;11103;43.788;23.710;2023-05-20T06:33:06;-14922.56;;;-144.67;100.00
21877;BME280;11103;43.788;23.710;2023-05-20T06:35:31;-14922.56;;;-144.67;100.00
21877;BME280;11103;43.788;23.710;2023-05-20T06:38:00;-14922.56;;;-144.67;100.00
21877;BME280;11103;43.788;23.710;2023-05-20T06:40:26;-14922.56;;;-144.67;100.00
21877;BME280;11103;43.788;23.710;2023-05-20T06:42:51;-14922.56;;;-144.67;100.00
21877;BME280;11103;43.788;23.710;2023-05-20T06:45:17;-14922.56;;;-144.67;100.00
21877;BME280;11103;43.788;23.710;2023-05-20T06:47:43;-14922.56;;;-144.67;100.00
21877;BME280;11103;43.788;23.710;2023-05-20T06:50:09;-14922.56;;;-144.67;100.00
21877;BME280;11103;43.788;23.710;2023-05-20T06:52:35;-14922.56;;;-144.67;100.00
21877;BME280;11103;43.788;23.710;2023-05-20T06:55:03;-14922.56;;;-144.67;100.00
21877;BME280;11103;43.788;23.710;2023-05-20T06:57:29;-14922.56;;;-144.67;100.00
21877;BME280;11103;43.788;23.710;2023-05-20T06:59:54;-14922.56;;;-144.67;100.00
21877;BME280;11103;43.788;23.710;2023-05-20T07:02:21;-14922.56;;;-144.67;100.00
21877;BME280;11103;43.788;23.710;2023-05-20T07:04:47;-14922.56;;;-144.67;100.00
21877;BME280;11103;43.788;23.710;2023-05-20T07:07:12;-14922.56;;;-144.67;100.00
21877;BME280;11103;43.788;23.710;2023-05-20T07:09:38;-14922.56;;;-144.67;100.00
21877;BME280;11103;43.788;23.710;2023-05-20T07:12:03;-14922.56;;;-144.67;100.00
21877;BME280;11103;43.788;23.710;2023-05-20T07:14:29;-14922.56;;;-144.67;100.00
21877;BME280;11103;43.788;23.710;2023-05-20T07:16:54;-14922.56;;;-144.67;100.00
21877;BME280;11103;43.788;23.710;2023-05-20T07:19:20;-14922.56;;;-144.67;100.00
21877;BME280;11103;43.788;23.710;2023-05-20T07:21:45;-14922.56;;;-144.67;100.00
21877;BME280;11103;43.788;23.710;2023-05-20T07:24:11;-14922.56;;;-144.67;100.00
21877;BME280;11103;43.788;23.710;2023-05-20T07:26:36;-14922.56;;;-144.67;100.00
21877;BME280;11103;43.788;23.710;2023-05-20T07:29:03;-14922.56;;;-144.67;100.00
21877;BME280;11103;43.788;23.710;2023-05-20T07:31:28;-14922.56;;;-144.67;100.00
21877;BME280;11103;43.788;23.710;2023-05-20T07:33:54;-14922.56;;;-144.67;100.00
21877;BME280;11103;43.788;23.710;2023-05-20T07:36:20;-14922.56;;;-144.67;100.00
21877;BME280;11103;43.788;23.710;2023-05-20T07:38:45;-14922.56;;;-144.67;100.00
21877;BME280;11103;43.788;23.710;2023-05-20T07:41:11;-14922.56;;;-144.67;100.00
21877;BME280;11103;43.788;23.710;2023-05-20T07:43:36;-14922.56;;;-144.67;100.00
21877;BME280;11103;43.788;23.710;2023-05-20T07:46:02;-14922.56;;;-144.67;100.00
21877;BME280;11103;43.788;23.710;2023-05-20T07:48:27;-14922.56;;;-144.67;100.00
21877;BME280;11103;43.788;23.710;2023-05-20T07:50:52;-14922.56;;;-144.67;100.00
21877;BME280;11103;43.788;23.710;2023-05-20T07:53:18;-14922.56;;;-144.67;100.00
21877;BME280;11103;43.788;23.710;2023-05-20T07:55:44;-14922.56;;;-144.67;100.00
21877;BME280;11103;43.788;23.710;2023-05-20T07:58:09;-14922.56;;;-144.67;100.00
21877;BME280;11103;43.788;23.710;2023-05-20T08:00:35;-14922.56;;;-144.67;100.00
21877;BME280;11103;43.788;23.710;2023-05-20T08:03:01;-14922.56;;;-144.67;100.00
21877;BME280;11103;43.788;23.710;2023-05-20T08:05:26;-14922.56;;;-144.67;100.00
21877;BME280;11103;43.788;23.710;2023-05-20T08:07:52;-14922.56;;;-144.67;100.00
21877;BME280;11103;43.788;23.710;2023-05-20T08:10:17;-14922.56;;;-144.67;100.00
21877;BME280;11103;43.788;23.710;2023-05-20T08:12:43;-14922.56;;;-144.67;100.00
21877;BME280;11103;43.788;23.710;2023-05-20T08:15:08;-14922.56;;;-144.67;100.00
21877;BME280;11103;43.788;23.710;2023-05-20T08:17:34;-14922.56;;;-144.67;100.00
21877;BME280;11103;43.788;23.710;2023-05-20T08:20:00;-14922.56;;;-144.67;100.00
21877;BME280;11103;43.788;23.710;2023-05-20T08:22:26;-14922.56;;;-144.67;100.00
21877;BME280;11103;43.788;23.710;2023-05-20T08:24:51;-14922.56;;;-144.67;100.00
21877;BME280;11103;43.788;23.710;2023-05-20T08:27:16;-14922.56;;;-144.67;100.00
21877;BME280;11103;43.788;23.710;2023-05-20T08:29:43;-14922.56;;;-144.67;100.00
21877;BME280;11103;43.788;23.710;2023-05-20T08:32:09;-14922.56;;;-144.67;100.00
21877;BME280;11103;43.788;23.710;2023-05-20T08:34:34;-14922.56;;;-144.67;100.00
21877;BME280;11103;43.788;23.710;2023-05-20T08:37:01;-14922.56;;;-144.67;100.00
21877;BME280;11103;43.788;23.710;2023-05-20T08:39:27;-14922.56;;;-144.67;100.00
21877;BME280;11103;43.788;23.710;2023-05-20T08:41:52;-14922.56;;;-144.67;100.00
21877;BME280;11103;43.788;23.710;2023-05-20T08:44:18;-14922.56;;;-144.67;100.00
21877;BME280;11103;43.788;23.710;2023-05-20T08:46:45;-14922.56;;;-144.67;100.00
21877;BME280;11103;43.788;23.710;2023-05-20T08:49:11;-14922.56;;;-144.67;100.00
21877;BME280;11103;43.788;23.710;2023-05-20T08:51:38;-14922.56;;;-144.67;100.00
21877;BME280;11103;43.788;23.710;2023-05-20T08:54:05;-14922.56;;;-144.67;100.00
21877;BME280;11103;43.788;23.710;2023-05-20T08:56:32;-14922.56;;;-144.67;100.00
21877;BME280;11103;43.788;23.710;2023-05-20T08:58:58;-14922.56;;;-144.67;100.00
21877;BME280;11103;43.788;23.710;2023-05-20T09:01:24;-14922.56;;;-144.67;100.00
21877;BME280;11103;43.788;23.710;2023-05-20T09:03:52;-14922.56;;;-144.67;100.00
21877;BME280;11103;43.788;23.710;2023-05-20T09:06:17;-14922.56;;;-144.67;100.00
21877;BME280;11103;43.788;23.710;2023-05-20T09:08:49;-14922.56;;;-144.67;100.00
21877;BME280;11103;43.788;23.710;2023-05-20T09:11:16;-14922.56;;;-144.67;100.00
21877;BME280;11103;43.788;23.710;2023-05-20T09:13:42;-14922.56;;;-144.67;100.00
21877;BME280;11103;43.788;23.710;2023-05-20T09:16:09;-14922.56;;;-144.67;100.00
21877;BME280;11103;43.788;23.710;2023-05-20T09:18:37;-14921.13;;;-144.67;100.00
21877;BME280;11103;43.788;23.710;2023-05-20T09:21:04;-14921.13;;;-144.67;100.00
21877;BME280;11103;43.788;23.710;2023-05-20T09:23:31;-14922.56;;;-144.67;100.00
21877;BME280;11103;43.788;23.710;2023-05-20T09:25:59;-14922.56;;;-144.67;100.00
21877;BME280;11103;43.788;23.710;2023-05-20T09:28:25;-1629.66;;;-144.67;100.00
21877;BME280;11103;43.788;23.710;2023-05-20T09:30:56;3306.84;;;-144.67;100.00
21877;BME280;11103;43.788;23.710;2023-05-20T09:33:26;-6066.19;;;-144.67;100.00
21877;BME280;11103;43.788;23.710;2023-05-20T09:36:01;2318.94;;;-144.67;100.00
21877;BME280;11103;43.788;23.710;2023-05-20T09:38:28;4789.25;;;-144.67;100.00
21877;BME280;11103;43.788;23.710;2023-05-20T09:41:01;8745.56;;;-144.67;100.00
21877;BME280;11103;43.788;23.710;2023-05-20T09:43:28;8003.41;;;-144.67;100.00
21877;BME280;11103;43.788;23.710;2023-05-20T09:45:54;837.66;;;-144.67;100.00
21877;BME280;11103;43.788;23.710;2023-05-20T09:48:21;9735.41;;;-144.67;100.00
21877;BME280;11103;43.788;23.710;2023-05-20T09:50:47;21139.75;;;-144.67;100.00
21877;BME280;11103;43.788;23.710;2023-05-20T09:53:14;5777.88;;;-144.67;100.00
21877;BME280;11103;43.788;23.710;2023-05-20T09:55:41;4047.94;;;-144.67;100.00
21877;BME280;11103;43.788;23.710;2023-05-20T09:58:08;97.25;;;-144.67;100.00
21877;BME280;11103;43.788;23.710;2023-05-20T10:00:34;3306.84;;;-144.67;100.00
21877;BME280;11103;43.788;23.710;2023-05-20T10:03:00;20146.50;;;-144.67;100.00
21877;BME280;11103;43.788;23.710;2023-05-20T10:05:31;19898.25;;;-144.67;100.00
21877;BME280;11103;43.788;23.710;2023-05-20T10:08:19;25613.03;;;-144.67;100.00
21877;BME280;11103;43.788;23.710;2023-05-20T10:21:43;40567.41;;;-144.67;100.00
21877;BME280;11103;43.788;23.710;2023-05-20T10:24:09;54835.97;;;-144.67;100.00
21877;BME280;11103;43.788;23.710;2023-05-20T10:26:39;38070.34;;;-144.67;100.00
21877;BME280;11103;43.788;23.710;2023-05-20T10:29:17;58098.66;;;-144.67;100.00
21877;BME280;11103;43.788;23.710;2023-05-20T10:31:47;68600.06;;;-144.67;100.00
21877;BME280;11103;43.788;23.710;2023-05-20T10:34:14;45567.03;;;-144.67;100.00
21877;BME280;11103;43.788;23.710;2023-05-20T10:37:05;18905.38;;;-144.67;100.00
21877;BME280;11103;43.788;23.710;2023-05-20T10:39:30;9735.41;;;-144.67;100.00
21877;BME280;11103;43.788;23.710;2023-05-20T10:42:06;22133.31;;;-144.67;100.00
21877;BME280;11103;43.788;23.710;2023-05-20T10:44:58;32085.03;;;-144.67;100.00
21877;BME280;11103;43.788;23.710;2023-05-20T10:47:24;83058.06;;;-144.67;99.04
21877;BME280;11103;43.788;23.710;2023-05-20T10:49:49;80476.34;;;-144.67;100.00
21877;BME280;11103;43.788;23.710;2023-05-20T10:52:18;33331.09;;;-144.67;100.00
21877;BME280;11103;43.788;23.710;2023-05-20T10:57:19;33081.84;;;-144.67;100.00
21877;BME280;11103;43.788;23.710;2023-05-20T10:59:45;37820.75;;;-144.67;100.00
21877;BME280;11103;43.788;23.710;2023-05-20T11:02:14;83813.03;;;-144.67;97.82
21877;BME280;11103;43.788;23.710;2023-05-20T11:04:42;65891.56;;;-144.67;100.00
21877;BME280;11103;43.788;23.710;2023-05-20T11:07:08;82969.16;;;-144.67;99.52
21877;BME280;11103;43.788;23.710;2023-05-20T11:09:34;83763.59;;;-144.67;99.14
21877;BME280;11103;43.788;23.710;2023-05-20T11:12:00;68436.75;;;-144.67;100.00
21877;BME280;11103;43.788;23.710;2023-05-20T11:14:28;67691.09;;;-144.67;100.00
21877;BME280;11103;43.788;23.710;2023-05-20T11:16:58;85930.50;;;-144.67;90.58
21877;BME280;11103;43.788;23.710;2023-05-20T11:19:26;85839.50;;;-144.67;88.99
21877;BME280;11103;43.788;23.710;2023-05-20T11:21:52;65136.63;;;-144.67;100.00
21877;BME280;11103;43.788;23.710;2023-05-20T11:24:27;21884.88;;;-144.67;100.00
21877;BME280;11103;43.788;23.710;2023-05-20T11:26:56;66394.94;;;-144.67;100.00
21877;BME280;11103;43.788;23.710;2023-05-20T11:29:22;78833.88;;;-144.67;100.00
21877;BME280;11103;43.788;23.710;2023-05-20T11:31:50;85827.66;;;-144.67;92.19
21877;BME280;11103;43.788;23.710;2023-05-20T11:34:19;85491.47;;;-144.67;95.38
21877;BME280;11103;43.788;23.710;2023-05-20T11:36:45;85598.25;;;-144.67;95.48
21877;BME280;11103;43.788;23.710;2023-05-20T11:39:11;85641.75;;;-144.67;86.84
21877;BME280;11103;43.788;23.710;2023-05-20T11:41:37;85695.16;;;-144.67;88.42
21877;BME280;11103;43.788;23.710;2023-05-20T11:44:03;85368.88;;;-144.67;83.89
21877;BME280;11103;43.788;23.710;2023-05-20T11:46:29;85183.00;;;-144.67;80.90
21877;BME280;11103;43.788;23.710;2023-05-20T11:48:55;85657.56;;;-144.67;87.71
21877;BME280;11103;43.788;23.710;2023-05-20T11:51:27;85406.44;;;-144.67;82.65
21877;BME280;11103;43.788;23.710;2023-05-20T11:53:59;85792.06;;;-144.67;89.51
21877;BME280;11103;43.788;23.710;2023-05-20T11:56:27;85538.94;;;-144.67;84.63
21877;BME280;11103;43.788;23.710;2023-05-20T11:58:59;85068.31;;;-144.67;97.61
21877;BME280;11103;43.788;23.710;2023-05-20T12:01:28;85275.94;;;-144.67;82.12
21877;BME280;11103;43.788;23.710;2023-05-20T12:03:54;85345.13;;;-144.67;83.04
21877;BME280;11103;43.788;23.710;2023-05-20T12:06:19;83909.88;;;-144.67;100.00
21877;BME280;11103;43.788;23.710;2023-05-20T12:08:45;85637.81;;;-144.67;86.60
21877;BME280;11103;43.788;23.710;2023-05-20T12:11:12;85382.72;;;-144.67;84.80
21877;BME280;11103;43.788;23.710;2023-05-20T12:13:38;85564.63;;;-144.67;86.76
21877;BME280;11103;43.788;23.710;2023-05-20T12:16:04;84894.31;;;-144.67;78.27
21877;BME280;11103;43.788;23.710;2023-05-20T12:18:30;84591.84;;;-144.67;75.78
21877;BME280;11103;43.788;23.710;2023-05-20T12:20:57;84661.03;;;-144.67;76.10
21877;BME280;11103;43.788;23.710;2023-05-20T12:23:22;84898.28;;;-144.67;80.57
21877;BME280;11103;43.788;23.710;2023-05-20T12:25:48;85236.38;;;-144.67;84.71